Time;durP1;ratioP1;P1;durP2;ratioP2;P2;SDS_P1;SDS_P2;PMS_P1;PMS_P2;Temp;Humidity;BMP_temperature;BMP_pressure;BME280_temperature;BME280_humidity;BME280_pressure;Samples;Min_cycle;Max_cycle;Signal;HPM_P1;HPM_P2
2022/06/19 00:00:40;;;;;;;4.00;3.80;;;;;;;18.79;100.00;96867.06;5037705;28;20317;-63
2022/06/19 00:03:12;;;;;;;3.80;3.43;;;;;;;18.83;100.00;96861.19;5003890;28;20242;-63
2022/06/19 00:05:42;;;;;;;3.57;3.37;;;;;;;18.75;100.00;96865.94;5041012;28;20203;-64
2022/06/19 00:08:10;;;;;;;9.23;3.70;;;;;;;18.77;100.00;96860.28;5039752;28;20214;-62
2022/06/19 00:10:38;;;;;;;3.60;3.40;;;;;;;18.75;100.00;96854.34;5036417;28;20238;-63
2022/06/19 00:13:06;;;;;;;3.30;3.10;;;;;;;18.71;100.00;96847.88;5038371;28;20317;-62
2022/06/19 00:15:35;;;;;;;3.07;2.97;;;;;;;18.69;100.00;96849.97;5039648;28;20657;-64
2022/06/19 00:18:03;;;;;;;3.77;3.43;;;;;;;18.61;100.00;96835.91;5002616;28;20701;-65
2022/06/19 00:20:38;;;;;;;3.60;3.40;;;;;;;18.51;100.00;96838.41;5038233;28;20389;-64
2022/06/19 00:23:07;;;;;;;4.53;4.13;;;;;;;18.51;100.00;96831.19;5042027;28;20496;-63
2022/06/19 00:25:37;;;;;;;5.10;4.70;;;;;;;18.59;100.00;96831.84;5036744;28;20909;-64
2022/06/19 00:28:06;;;;;;;5.30;4.90;;;;;;;18.55;100.00;96828.03;5042053;28;20553;-64
2022/06/19 00:30:35;;;;;;;4.73;4.43;;;;;;;18.52;100.00;96832.81;5041012;28;20211;-63
2022/06/19 00:33:03;;;;;;;6.30;4.60;;;;;;;18.69;100.00;96837.34;5005395;28;20713;-63
2022/06/19 00:35:31;;;;;;;5.13;4.63;;;;;;;18.56;100.00;96830.47;5042764;28;20445;-63
2022/06/19 00:38:00;;;;;;;5.07;4.77;;;;;;;18.40;100.00;96823.22;5036481;28;20306;-64
2022/06/19 00:40:30;;;;;;;4.80;4.60;;;;;;;18.38;100.00;96815.44;5043877;28;20645;-63
2022/06/19 00:42:59;;;;;;;4.63;4.33;;;;;;;18.50;100.00;96812.66;5041819;28;20348;-63
2022/06/19 00:45:33;;;;;;;4.97;4.07;;;;;;;18.38;100.00;96807.38;5041058;28;20360;-63
2022/06/19 00:48:03;;;;;;;4.53;4.23;;;;;;;18.36;100.00;96807.63;4999468;28;20213;-64
2022/06/19 00:50:32;;;;;;;5.07;4.77;;;;;;;18.27;100.00;96809.09;5036343;28;20203;-63
2022/06/19 00:53:01;;;;;;;5.50;5.07;;;;;;;18.22;100.00;96801.75;4991632;28;20347;-62
2022/06/19 00:55:34;;;;;;;5.93;5.43;;;;;;;18.20;100.00;96803.88;5041553;28;20211;-65
2022/06/19 00:58:05;;;;;;;5.43;5.13;;;;;;;18.26;100.00;96803.94;5034410;28;20775;-63
2022/06/19 01:00:34;;;;;;;5.63;5.10;;;;;;;18.22;100.00;96796.41;5041116;28;20351;-62
2022/06/19 01:03:06;;;;;;;5.30;4.90;;;;;;;18.13;100.00;96792.50;5025110;28;20203;-63
2022/06/19 01:05:36;;;;;;;5.10;4.90;;;;;;;18.12;100.00;96798.91;5045595;28;20411;-64
2022/06/19 01:08:05;;;;;;;5.43;5.03;;;;;;;18.04;100.00;96796.63;4997883;28;20306;-63
2022/06/19 01:10:38;;;;;;;6.30;5.90;;;;;;;18.00;100.00;96787.41;5043382;28;20577;-63
2022/06/19 01:13:07;;;;;;;5.90;5.50;;;;;;;18.13;100.00;96783.63;5043433;28;20423;-61
2022/06/19 01:15:35;;;;;;;6.00;5.60;;;;;;;17.95;100.00;96780.09;5045838;28;20595;-64
2022/06/19 01:18:06;;;;;;;5.87;5.57;;;;;;;17.86;100.00;96770.81;5022795;28;20311;-64
2022/06/19 01:20:35;;;;;;;5.80;5.30;;;;;;;17.93;100.00;96769.59;5043973;28;20562;-64
2022/06/19 01:23:11;;;;;;;6.33;5.73;;;;;;;17.84;100.00;96770.25;5001481;28;20758;-64
2022/06/19 01:25:42;;;;;;;6.40;5.83;;;;;;;17.71;100.00;96764.13;5044527;28;20199;-64
2022/06/19 01:30:59;;;;;;;6.47;6.00;;;;;;;17.61;100.00;96758.59;5016416;28;20226;-64
2022/06/19 01:33:30;;;;;;;6.93;6.23;;;;;;;17.60;100.00;96752.41;5024727;28;20638;-64
2022/06/19 01:35:59;;;;;;;6.73;6.17;;;;;;;17.60;100.00;96751.59;5048691;28;20244;-64
2022/06/19 01:38:28;;;;;;;6.90;6.37;;;;;;;17.61;100.00;96748.66;4999955;28;20498;-63
2022/06/19 01:41:01;;;;;;;7.13;6.47;;;;;;;17.57;100.00;96741.38;5047995;28;20196;-61
2022/06/19 01:43:29;;;;;;;7.07;6.50;;;;;;;17.46;100.00;96740.38;5046012;28;20241;-65
2022/06/19 01:45:57;;;;;;;6.87;6.37;;;;;;;17.50;100.00;96726.25;5039813;28;20288;-62
2022/06/19 01:48:29;;;;;;;7.33;6.83;;;;;;;17.48;100.00;96723.00;5027634;28;20410;-61
2022/06/19 01:50:57;;;;;;;7.30;6.80;;;;;;;17.44;100.00;96723.72;5046036;28;20745;-66
2022/06/19 01:53:30;;;;;;;6.43;5.93;;;;;;;17.52;100.00;96717.97;5000019;28;20207;-65
2022/06/19 01:56:00;;;;;;;5.67;5.27;;;;;;;17.71;100.00;96717.78;5042251;28;20230;-64
2022/06/19 01:58:30;;;;;;;5.73;5.43;;;;;;;17.83;100.00;96710.47;5046823;28;20563;-64
2022/06/19 02:00:58;;;;;;;5.70;5.20;;;;;;;17.86;100.00;96704.63;5044158;28;20925;-66
2022/06/19 02:03:29;;;;;;;7.47;5.93;;;;;;;17.76;100.00;96704.47;5029721;28;20218;-66
2022/06/19 02:05:58;;;;;;;5.20;4.73;;;;;;;17.73;100.00;96699.59;5043906;28;20198;-65
2022/06/19 02:08:28;;;;;;;5.27;4.93;;;;;;;17.62;100.00;96690.56;4998814;28;21688;-64
2022/06/19 02:11:22;;;;;;;5.00;4.70;;;;;;;17.63;100.00;96684.16;5045297;28;20446;-63
2022/06/19 02:13:50;;;;;;;4.07;3.83;;;;;;;17.63;100.00;96679.63;5045488;28;20529;-64
2022/06/19 02:16:21;;;;;;;4.40;4.10;;;;;;;17.74;100.00;96671.75;5043211;28;20325;-61
2022/06/19 02:18:52;;;;;;;4.30;3.80;;;;;;;17.77;100.00;96669.38;5027431;28;20238;-63
2022/06/19 02:21:22;;;;;;;4.67;4.30;;;;;;;18.17;100.00;96658.75;5043999;28;20706;-65
2022/06/19 02:23:50;;;;;;;5.03;4.73;;;;;;;17.82;100.00;96654.47;5046077;28;20265;-63
2022/06/19 02:26:19;;;;;;;6.23;5.33;;;;;;;17.72;100.00;96653.22;5002774;28;20211;-63
2022/06/19 02:28:50;;;;;;;5.33;4.90;;;;;;;17.58;100.00;96647.38;5045525;28;20230;-64
2022/06/19 02:31:20;;;;;;;6.00;5.60;;;;;;;17.61;100.00;96644.19;5042433;28;20235;-62
2022/06/19 02:33:51;;;;;;;5.90;5.60;;;;;;;17.55;100.00;96642.50;5046170;28;20630;-63
2022/06/19 02:36:41;;;;;;;7.00;6.40;;;;;;;17.32;100.00;96646.13;5030006;28;20204;-63
2022/06/19 02:39:25;;;;;;;8.40;6.40;;;;;;;17.15;100.00;96646.06;5024913;28;20699;-63
2022/06/19 02:42:01;;;;;;;7.40;6.80;;;;;;;16.95;100.00;96647.31;5001312;28;20365;-63
2022/06/19 02:44:38;;;;;;;6.60;6.10;;;;;;;16.85;100.00;96652.44;5043334;28;20235;-63
2022/06/19 02:47:07;;;;;;;7.80;7.20;;;;;;;16.76;100.00;96646.66;5040802;28;20214;-63
2022/06/19 02:49:36;;;;;;;6.60;6.17;;;;;;;16.67;100.00;96642.72;5037451;28;20199;-63
2022/06/19 02:52:06;;;;;;;8.33;7.03;;;;;;;16.54;100.00;96644.59;5033736;28;20768;-62
2022/06/19 02:54:35;;;;;;;7.20;6.47;;;;;;;16.42;100.00;96639.28;5000093;28;20952;-63
2022/06/19 02:57:04;;;;;;;7.30;6.80;;;;;;;16.39;100.00;96636.28;5015098;28;20212;-63
2022/06/19 02:59:35;;;;;;;6.70;6.10;;;;;;;16.33;100.00;96632.66;4985492;28;20583;-63
2022/06/19 03:02:03;;;;;;;6.97;6.27;;;;;;;16.28;100.00;96632.56;5039877;28;20761;-62
2022/06/19 03:04:35;;;;;;;6.70;6.23;;;;;;;16.30;100.00;96625.94;5041534;28;20228;-63
2022/06/19 03:07:04;;;;;;;8.50;6.93;;;;;;;16.20;100.00;96623.03;5016588;28;20210;-63
2022/06/19 03:09:33;;;;;;;7.37;6.67;;;;;;;16.17;100.00;96629.66;5036684;28;20468;-64
2022/06/19 03:12:01;;;;;;;7.27;6.60;;;;;;;16.09;100.00;96621.19;5020470;28;20215;-63
2022/06/19 03:14:29;;;;;;;7.03;6.47;;;;;;;16.23;100.00;96621.75;4993596;28;20235;-63
2022/06/19 03:16:59;;;;;;;6.80;6.37;;;;;;;16.22;100.00;96628.16;5037644;28;20226;-63
2022/06/19 03:19:27;;;;;;;6.77;6.27;;;;;;;16.07;100.00;96616.06;5038171;28;20223;-64
2022/06/19 03:21:56;;;;;;;6.93;6.30;;;;;;;16.09;100.00;96632.66;5034286;28;20235;-63
2022/06/19 03:24:26;;;;;;;6.80;6.30;;;;;;;16.13;100.00;96639.19;5038936;28;20223;-65
2022/06/19 03:26:55;;;;;;;6.67;6.17;;;;;;;16.17;100.00;96637.69;5031974;28;20529;-62
2022/06/19 03:29:23;;;;;;;8.70;6.80;;;;;;;16.28;100.00;96651.28;4982760;28;20882;-64
2022/06/19 03:31:51;;;;;;;6.30;5.87;;;;;;;16.35;100.00;96641.25;5038686;28;20230;-62
2022/06/19 03:34:21;;;;;;;7.47;6.77;;;;;;;16.30;100.00;96650.00;5043371;28;20256;-64
2022/06/19 03:36:49;;;;;;;8.23;7.37;;;;;;;16.27;100.00;96639.75;5043513;28;20235;-62
2022/06/19 03:39:17;;;;;;;7.53;7.03;;;;;;;16.22;100.00;96642.31;5023496;28;20345;-65
2022/06/19 03:41:46;;;;;;;7.60;7.10;;;;;;;16.20;100.00;96642.56;5011420;28;20460;-63
2022/06/19 03:44:14;;;;;;;7.73;7.23;;;;;;;16.07;100.00;96642.78;5022547;28;20526;-63
2022/06/19 03:46:44;;;;;;;7.27;6.70;;;;;;;16.11;100.00;96638.63;4969344;28;20238;-63
2022/06/19 03:49:12;;;;;;;7.60;7.10;;;;;;;16.14;100.00;96635.47;5019541;28;20477;-63
2022/06/19 03:51:42;;;;;;;7.33;6.83;;;;;;;16.22;100.00;96642.31;5033721;28;20868;-62
2022/06/19 03:54:10;;;;;;;6.63;6.13;;;;;;;16.25;100.00;96649.88;5041617;28;20259;-64
2022/06/19 03:56:38;;;;;;;7.13;6.53;;;;;;;16.33;100.00;96640.69;5037481;28;20503;-63
2022/06/19 03:59:12;;;;;;;7.67;6.97;;;;;;;16.40;100.00;96638.69;5024085;28;20546;-63
2022/06/19 04:01:41;;;;;;;7.20;6.60;;;;;;;16.50;100.00;96640.78;4990727;28;20503;-65
2022/06/19 04:04:10;;;;;;;6.57;6.07;;;;;;;16.55;100.00;96640.88;5021155;28;20318;-65
2022/06/19 04:06:41;;;;;;;7.40;6.83;;;;;;;16.62;100.00;96632.75;5013783;28;20213;-62
2022/06/19 04:09:12;;;;;;;7.80;6.50;;;;;;;16.63;100.00;96640.50;5029241;28;20202;-63
2022/06/19 04:11:41;;;;;;;7.23;6.70;;;;;;;16.74;100.00;96633.50;5038589;28;20745;-63
2022/06/19 04:14:10;;;;;;;6.43;6.03;;;;;;;16.74;100.00;96627.38;5028839;28;20307;-62
2022/06/19 04:16:38;;;;;;;6.60;6.13;;;;;;;16.91;100.00;96630.09;4970937;28;20982;-63
2022/06/19 04:19:08;;;;;;;6.67;6.23;;;;;;;17.00;100.00;96634.03;5018601;28;20226;-59
2022/06/19 04:21:42;;;;;;;6.83;6.40;;;;;;;17.14;100.00;96633.75;5037800;28;20379;-63
2022/06/19 04:24:12;;;;;;;6.80;6.30;;;;;;;17.16;100.00;96631.66;5044268;28;20257;-62
2022/06/19 04:26:40;;;;;;;6.43;6.03;;;;;;;17.29;100.00;96634.03;5040275;28;20230;-62
2022/06/19 04:29:09;;;;;;;6.53;5.70;;;;;;;17.40;100.00;96636.88;5041792;28;20252;-62
2022/06/19 04:31:38;;;;;;;5.80;5.40;;;;;;;17.51;100.00;96630.66;4974610;28;21591;-60
2022/06/19 04:34:06;;;;;;;5.40;5.10;;;;;;;17.55;100.00;96623.75;5019630;28;20327;-61
2022/06/19 04:36:35;;;;;;;6.23;5.83;;;;;;;17.80;100.00;96630.59;5037004;28;20297;-59
2022/06/19 04:39:05;;;;;;;6.30;5.90;;;;;;;17.88;100.00;96635.53;5044438;28;20608;-62
2022/06/19 04:41:36;;;;;;;6.43;6.03;;;;;;;18.05;100.00;96622.16;5025808;28;20786;-61
2022/06/19 04:44:07;;;;;;;6.27;5.80;;;;;;;18.13;100.00;96620.94;5041469;28;20643;-60
2022/06/19 04:46:36;;;;;;;6.23;5.63;;;;;;;18.41;100.00;96618.34;5024478;28;20853;-63
2022/06/19 04:49:05;;;;;;;6.57;6.00;;;;;;;18.51;100.00;96621.97;4976607;28;20214;-59
2022/06/19 04:51:38;;;;;;;5.30;5.00;;;;;;;18.77;100.00;96613.41;5042865;28;20211;-62
2022/06/19 04:54:08;;;;;;;5.80;5.40;;;;;;;18.90;100.00;96609.53;5024401;28;20316;-60
2022/06/19 04:56:37;;;;;;;4.37;4.07;;;;;;;19.22;100.00;96598.88;5046912;28;20607;-62
2022/06/19 04:59:05;;;;;;;3.80;3.50;;;;;;;19.67;100.00;96594.16;5047000;28;20299;-59
2022/06/19 05:01:36;;;;;;;4.10;3.60;;;;;;;20.18;100.00;96587.53;5025705;28;20343;-63
2022/06/19 05:04:07;;;;;;;3.83;3.53;;;;;;;20.45;100.00;96594.66;4976534;28;20561;-61
2022/06/19 05:06:35;;;;;;;3.40;3.10;;;;;;;20.68;100.00;96592.63;4987283;28;20221;-62
2022/06/19 05:09:04;;;;;;;3.67;3.20;;;;;;;20.94;100.00;96598.91;5043447;28;20330;-57
2022/06/19 05:11:34;;;;;;;4.20;3.20;;;;;;;21.13;100.00;96600.28;5029532;28;20310;-60
2022/06/19 05:14:03;;;;;;;3.13;2.97;;;;;;;21.34;100.00;96596.53;5045972;28;20309;-63
2022/06/19 05:16:32;;;;;;;3.30;3.20;;;;;;;21.55;100.00;96608.13;5026060;28;20305;-59
2022/06/19 05:19:03;;;;;;;3.57;3.13;;;;;;;21.73;100.00;96603.34;5047211;28;20199;-61
2022/06/19 05:21:31;;;;;;;3.40;3.10;;;;;;;21.97;100.00;96606.28;4996386;28;20215;-62
2022/06/19 05:23:59;;;;;;;3.20;3.00;;;;;;;22.10;100.00;96601.38;5043431;28;20211;-64
2022/06/19 05:26:30;;;;;;;3.10;2.90;;;;;;;22.08;100.00;96595.47;5043473;28;20683;-64
2022/06/19 05:29:00;;;;;;;3.83;3.47;;;;;;;22.16;100.00;96600.31;5026489;28;20541;-62
2022/06/19 05:31:29;;;;;;;4.63;3.77;;;;;;;22.17;100.00;96599.25;5027466;28;20606;-63
2022/06/19 05:33:57;;;;;;;4.17;3.40;;;;;;;22.39;100.00;96593.50;5044833;28;20246;-64
2022/06/19 05:36:32;;;;;;;3.83;3.53;;;;;;;22.44;100.00;96598.06;5011719;28;20222;-63
2022/06/19 05:39:08;;;;;;;3.27;3.17;;;;;;;22.48;100.00;96598.38;5044572;28;20202;-65
2022/06/19 05:41:39;;;;;;;3.37;3.17;;;;;;;22.60;100.00;96608.84;5037263;28;20622;-65
2022/06/19 05:44:09;;;;;;;4.13;3.30;;;;;;;22.57;100.00;96610.19;5026339;28;20446;-64
2022/06/19 05:46:37;;;;;;;3.97;3.63;;;;;;;22.45;100.00;96609.69;5025341;28;20209;-63
2022/06/19 05:49:06;;;;;;;4.17;3.87;;;;;;;22.69;100.00;96613.38;5043919;28;20196;-63
2022/06/19 05:51:34;;;;;;;3.33;3.13;;;;;;;22.59;100.00;96612.63;5043987;28;20199;-63
2022/06/19 05:54:03;;;;;;;4.20;3.80;;;;;;;22.67;100.00;96606.66;5000892;28;20317;-62
2022/06/19 05:56:31;;;;;;;5.60;3.53;;;;;;;22.78;100.00;96597.41;5040841;28;20324;-62
2022/06/19 05:59:00;;;;;;;4.63;3.43;;;;;;;22.89;100.00;96600.06;5022536;28;20242;-65
2022/06/19 06:01:30;;;;;;;5.20;4.80;;;;;;;22.76;100.00;96585.31;5027331;28;20324;-63
2022/06/19 06:03:59;;;;;;;4.43;3.60;;;;;;;22.78;100.00;96596.63;5040209;28;20254;-60
2022/06/19 06:06:30;;;;;;;4.20;3.90;;;;;;;22.74;100.00;96598.28;5040305;28;20203;-63
2022/06/19 06:08:58;;;;;;;4.90;3.83;;;;;;;22.60;100.00;96588.06;4995076;28;20613;-60
2022/06/19 06:11:27;;;;;;;3.87;3.57;;;;;;;22.90;100.00;96586.28;5045247;28;20321;-60
2022/06/19 06:13:56;;;;;;;4.00;3.80;;;;;;;22.89;100.00;96591.97;5023410;28;20280;-63
2022/06/19 06:16:25;;;;;;;3.47;3.37;;;;;;;23.04;100.00;96581.09;5022351;28;20777;-65
2022/06/19 06:18:56;;;;;;;3.97;3.63;;;;;;;23.12;100.00;96591.28;5043116;28;20199;-64
2022/06/19 06:21:25;;;;;;;4.13;3.70;;;;;;;23.09;100.00;96581.06;5045098;28;20222;-64
2022/06/19 06:23:55;;;;;;;5.93;3.97;;;;;;;23.34;100.00;96584.72;5016192;28;20218;-61
2022/06/19 06:26:25;;;;;;;4.83;3.40;;;;;;;23.33;100.00;96584.97;5030870;28;20385;-66
2022/06/19 06:28:54;;;;;;;3.87;3.67;;;;;;;23.36;100.00;96585.22;5035303;28;20206;-63
2022/06/19 06:31:23;;;;;;;4.00;3.60;;;;;;;23.29;100.00;96587.41;5013708;28;20221;-64
2022/06/19 06:33:57;;;;;;;4.80;4.50;;;;;;;23.32;98.32;96578.78;5044147;28;20216;-63
2022/06/19 06:36:27;;;;;;;4.23;3.73;;;;;;;23.31;98.44;96574.47;5047104;28;20198;-61
2022/06/19 06:38:55;;;;;;;4.70;4.30;;;;;;;23.42;95.94;96570.59;5018388;28;20247;-62
2022/06/19 06:41:23;;;;;;;4.70;3.60;;;;;;;23.50;96.53;96571.88;5030422;28;21211;-64
2022/06/19 06:43:52;;;;;;;4.10;3.80;;;;;;;23.46;97.77;96568.09;5032725;28;20325;-62
2022/06/19 06:46:22;;;;;;;5.10;4.70;;;;;;;23.58;92.13;96578.56;5009682;28;21180;-65
2022/06/19 06:48:52;;;;;;;3.53;3.33;;;;;;;23.91;87.64;96573.41;5043087;28;20399;-63
2022/06/19 06:51:23;;;;;;;3.73;3.43;;;;;;;23.93;85.98;96571.22;5038149;28;20655;-66
2022/06/19 06:53:53;;;;;;;4.07;3.73;;;;;;;24.02;85.97;96571.44;5022368;28;20265;-62
2022/06/19 06:56:21;;;;;;;3.40;3.20;;;;;;;24.27;84.10;96567.66;5021839;28;20299;-65
2022/06/19 06:58:49;;;;;;;3.57;3.23;;;;;;;24.32;81.25;96569.50;5002338;28;20309;-64
2022/06/19 07:01:21;;;;;;;3.70;3.40;;;;;;;24.48;80.84;96564.72;5025202;28;20219;-65
2022/06/19 07:03:54;;;;;;;3.70;3.40;;;;;;;24.50;80.43;96561.69;5023936;28;20763;-64
2022/06/19 07:06:26;;;;;;;3.77;3.57;;;;;;;24.82;78.24;96565.66;5039981;28;20445;-67
2022/06/19 07:08:55;;;;;;;4.97;3.10;;;;;;;24.66;74.51;96556.91;5038226;28;20206;-65
2022/06/19 07:11:26;;;;;;;4.37;3.00;;;;;;;24.72;72.32;96555.72;4992950;28;20215;-63
2022/06/19 07:13:55;;;;;;;4.97;3.33;;;;;;;24.97;67.94;96554.59;4978739;28;20340;-63
2022/06/19 07:16:23;;;;;;;3.27;2.97;;;;;;;25.18;69.53;96558.91;5021132;28;20228;-61
2022/06/19 07:18:52;;;;;;;6.07;3.60;;;;;;;25.27;65.10;96557.97;5041966;28;20207;-63
2022/06/19 07:21:21;;;;;;;3.87;3.50;;;;;;;25.30;64.79;96564.72;5034923;28;20304;-61
2022/06/19 07:23:51;;;;;;;5.47;3.47;;;;;;;25.25;63.54;96564.78;5037439;28;20253;-62
2022/06/19 07:26:21;;;;;;;5.23;3.50;;;;;;;25.13;63.14;96566.03;5037473;28;20979;-62
2022/06/19 07:28:49;;;;;;;3.40;3.10;;;;;;;25.19;68.81;96550.50;5023595;28;20474;-64
2022/06/19 07:31:26;;;;;;;5.10;3.67;;;;;;;24.94;67.91;96557.91;5025291;28;20208;-65
2022/06/19 07:33:54;;;;;;;3.90;2.77;;;;;;;25.12;68.49;96564.41;5038658;28;20276;-64
2022/06/19 07:36:24;;;;;;;4.27;3.73;;;;;;;25.28;71.57;96561.47;5030135;28;20456;-65
2022/06/19 07:38:54;;;;;;;3.67;3.33;;;;;;;25.28;73.59;96556.84;5040880;28;20231;-64
2022/06/19 07:41:22;;;;;;;3.37;3.07;;;;;;;25.32;71.54;96561.69;5042138;28;20466;-65
2022/06/19 07:43:51;;;;;;;7.00;3.50;;;;;;;25.48;78.13;96563.09;5037192;28;20445;-65
2022/06/19 07:46:20;;;;;;;3.50;3.30;;;;;;;25.37;75.20;96557.00;5000985;28;20522;-66
2022/06/19 07:51:35;;;;;;;4.53;3.50;;;;;;;25.56;77.82;96546.13;5026539;28;20317;-66
2022/06/19 07:54:05;;;;;;;3.77;3.47;;;;;;;25.51;73.13;96538.09;5039710;28;21009;-66
2022/06/19 07:56:33;;;;;;;3.77;3.50;;;;;;;25.46;75.16;96543.59;5044482;28;20260;-66
2022/06/19 07:59:03;;;;;;;6.10;3.53;;;;;;;25.48;73.53;96546.00;5037458;28;20257;-63
2022/06/19 08:01:31;;;;;;;6.00;3.70;;;;;;;25.64;75.14;96543.84;4998017;28;20225;-65
2022/06/19 08:04:19;;;;;;;8.60;3.97;;;;;;;25.69;68.96;96528.28;5026868;28;20666;-65
2022/06/19 08:06:48;;;;;;;9.00;4.30;;;;;;;25.64;74.91;96533.81;5029569;28;20202;-67
2022/06/19 08:09:18;;;;;;;5.70;3.40;;;;;;;25.64;76.98;96527.56;5041366;28;20632;-64
2022/06/19 08:11:46;;;;;;;3.87;3.30;;;;;;;26.02;76.28;96524.72;5039615;28;20206;-65
2022/06/19 08:14:14;;;;;;;3.90;3.60;;;;;;;25.91;77.01;96521.38;5022471;28;20301;-64
2022/06/19 08:16:42;;;;;;;7.73;3.97;;;;;;;26.21;76.04;96515.72;5009571;28;20349;-66
2022/06/19 08:19:11;;;;;;;5.10;4.10;;;;;;;26.04;75.54;96517.06;5041465;28;20208;-64
2022/06/19 08:21:39;;;;;;;7.67;3.90;;;;;;;26.08;75.61;96514.56;5046361;28;20264;-65
2022/06/19 08:24:08;;;;;;;4.07;3.77;;;;;;;26.15;74.49;96509.53;5039620;28;20285;-62
2022/06/19 08:26:38;;;;;;;8.37;3.70;;;;;;;26.04;73.40;96505.44;5047346;28;20205;-64
2022/06/19 08:29:06;;;;;;;5.23;4.00;;;;;;;26.23;68.80;96508.84;5042615;28;20204;-63
2022/06/19 08:31:34;;;;;;;6.07;3.67;;;;;;;26.29;71.80;96513.06;5032023;28;20479;-62
2022/06/19 08:34:03;;;;;;;5.10;4.60;;;;;;;26.53;70.49;96514.75;5004561;28;20242;-63
2022/06/19 08:36:33;;;;;;;4.77;3.90;;;;;;;26.70;68.59;96526.91;5029551;28;20652;-64
2022/06/19 08:39:04;;;;;;;10.00;4.10;;;;;;;26.71;64.97;96521.16;5039178;28;20630;-60
2022/06/19 08:42:00;;;;;;;6.87;3.90;;;;;;;26.71;68.81;96525.81;5044991;28;20490;-65
2022/06/19 08:44:41;;;;;;;6.30;4.43;;;;;;;27.01;59.26;96529.78;5038863;28;20674;-63
2022/06/19 08:47:22;;;;;;;7.00;4.10;;;;;;;26.91;61.85;96540.91;5046784;28;21574;-63
2022/06/19 08:49:58;;;;;;;8.37;4.00;;;;;;;26.71;63.44;96542.13;5003399;28;20716;-66
2022/06/19 08:52:33;;;;;;;4.20;3.43;;;;;;;26.55;64.41;96537.00;5026747;28;20452;-59
2022/06/19 08:55:10;;;;;;;3.93;3.57;;;;;;;26.75;71.40;96540.41;5025233;28;20318;-61
2022/06/19 08:57:49;;;;;;;7.73;3.80;;;;;;;26.94;69.57;96532.13;5048480;28;20853;-62
2022/06/19 09:00:21;;;;;;;4.83;3.77;;;;;;;27.21;68.30;96535.06;5040961;28;20485;-65
2022/06/19 09:03:00;;;;;;;5.57;3.90;;;;;;;27.32;67.48;96532.91;5027673;28;20219;-63
2022/06/19 09:05:36;;;;;;;6.97;4.00;;;;;;;27.29;66.55;96521.53;5020097;28;20235;-64
2022/06/19 09:08:36;;;;;;;7.00;4.10;;;;;;;27.16;67.39;96528.63;5042564;28;20289;-66
2022/06/19 09:11:14;;;;;;;8.23;4.63;;;;;;;27.15;66.71;96529.72;5041742;28;20443;-65
2022/06/19 09:13:53;;;;;;;7.20;4.17;;;;;;;27.34;75.49;96525.22;5041370;28;20224;-62
2022/06/19 09:16:26;;;;;;;4.70;3.37;;;;;;;27.39;72.15;96533.25;5042112;28;20298;-61
2022/06/19 09:19:12;;;;;;;8.33;4.30;;;;;;;27.68;69.01;96530.09;5006356;28;20571;-61
2022/06/19 09:21:55;;;;;;;5.53;4.67;;;;;;;27.65;68.72;96527.19;4998458;28;20564;-64
2022/06/19 09:24:35;;;;;;;6.30;4.20;;;;;;;27.47;70.51;96532.50;5041655;28;20358;-63
2022/06/19 09:27:04;;;;;;;7.27;4.53;;;;;;;27.92;71.65;96509.06;5042525;28;20305;-60
2022/06/19 09:29:38;;;;;;;4.53;3.87;;;;;;;27.92;70.60;96509.91;5041512;28;20292;-64
2022/06/19 09:32:11;;;;;;;6.23;4.27;;;;;;;28.14;71.10;96519.09;5031147;28;20290;-64
2022/06/19 09:34:45;;;;;;;5.20;4.20;;;;;;;28.08;72.18;96517.63;5041023;28;20391;-59
2022/06/19 09:37:16;;;;;;;4.90;4.50;;;;;;;28.35;67.28;96510.38;5006409;28;20294;-62
2022/06/19 09:39:48;;;;;;;5.33;4.93;;;;;;;28.49;70.08;96502.88;5042023;28;20913;-62
2022/06/19 09:42:22;;;;;;;6.93;4.23;;;;;;;28.46;65.53;96508.97;5043184;28;20744;-64
2022/06/19 09:44:58;;;;;;;5.17;4.13;;;;;;;28.19;66.95;96493.69;5043222;28;20618;-64
2022/06/19 09:47:33;;;;;;;4.30;3.90;;;;;;;28.43;74.00;96488.63;5031164;28;20637;-61
2022/06/19 09:50:26;;;;;;;6.50;4.97;;;;;;;28.57;67.55;96488.47;5035205;28;20213;-69
2022/06/19 09:52:58;;;;;;;4.97;4.23;;;;;;;28.74;71.31;96495.06;5024624;28;20317;-64
2022/06/19 09:55:30;;;;;;;7.57;4.80;;;;;;;28.70;69.02;96485.94;5043350;28;20703;-65
2022/06/19 09:58:04;;;;;;;4.80;4.17;;;;;;;28.76;66.61;96495.53;5044047;28;20207;-64
2022/06/19 10:00:36;;;;;;;5.93;4.70;;;;;;;28.87;65.39;96501.53;5041461;28;20253;-62
2022/06/19 10:03:27;;;;;;;7.67;4.70;;;;;;;28.96;69.28;96499.59;5034161;28;20226;-65
2022/06/19 10:05:59;;;;;;;7.13;4.77;;;;;;;29.06;69.32;96500.38;5045402;28;20398;-61
2022/06/19 10:08:31;;;;;;;5.50;4.90;;;;;;;29.01;70.65;96498.63;5002696;28;20735;-64
2022/06/19 10:11:01;;;;;;;4.73;4.27;;;;;;;29.33;73.44;96488.31;5042279;28;20331;-66
2022/06/19 10:13:33;;;;;;;6.67;4.93;;;;;;;29.32;72.06;96489.44;5042726;28;20272;-65
2022/06/19 10:16:13;;;;;;;6.37;4.67;;;;;;;29.59;69.83;96490.22;5047568;28;20276;-66
2022/06/19 10:18:45;;;;;;;8.13;4.97;;;;;;;29.65;69.29;96483.47;5029435;28;20201;-67
2022/06/19 10:22:13;;;;;;;8.57;4.83;;;;;;;29.87;63.52;96479.69;5046624;28;20208;-65
2022/06/19 10:24:08;;;;;;;5.37;4.33;;;;;;;30.00;58.79;96475.16;5002704;28;20315;-62
2022/06/19 10:26:44;;;;;;;10.17;4.83;;;;;;;29.83;64.42;96475.22;5042049;28;20268;-64
2022/06/19 10:29:27;;;;;;;7.07;4.60;;;;;;;29.85;62.35;96473.75;5043293;28;20300;-66
2022/06/19 10:32:06;;;;;;;7.47;4.23;;;;;;;29.84;63.75;96474.09;5040226;28;20315;-62
2022/06/19 10:34:48;;;;;;;8.40;4.60;;;;;;;30.10;61.97;96471.25;5028551;28;20649;-64
2022/06/19 10:37:23;;;;;;;5.90;4.30;;;;;;;30.58;59.42;96463.75;5044548;28;20955;-62
2022/06/19 10:40:04;;;;;;;5.53;4.70;;;;;;;31.24;55.07;96466.13;5007097;28;20594;-58
2022/06/19 10:42:39;;;;;;;5.93;4.83;;;;;;;31.48;57.31;96471.69;5039434;28;20262;-63
2022/06/19 10:45:29;;;;;;;5.67;4.27;;;;;;;31.96;52.41;96474.03;5042970;28;20223;-63
2022/06/19 10:48:11;;;;;;;6.13;5.53;;;;;;;31.70;51.96;96471.59;5041500;28;20199;-65
2022/06/19 10:50:45;;;;;;;8.17;5.23;;;;;;;31.81;50.59;96470.03;5027183;28;20526;-61
2022/06/19 10:53:36;;;;;;;7.80;5.13;;;;;;;31.60;55.28;96465.44;5039489;28;20264;-62
2022/06/19 10:56:12;;;;;;;7.73;5.10;;;;;;;31.16;57.15;96462.34;5028609;28;20195;-62
2022/06/19 10:58:41;;;;;;;5.37;4.70;;;;;;;31.39;53.78;96451.81;5040694;28;20389;-63
2022/06/19 11:04:06;;;;;;;7.50;5.07;;;;;;;31.30;60.50;96460.13;5042265;28;20218;-64
2022/06/19 11:04:11;;;;;;;6.83;4.73;;;;;;;31.42;57.88;96447.59;5044826;28;20717;-62
2022/06/19 11:06:43;;;;;;;8.77;5.33;;;;;;;31.60;51.89;96454.50;5029370;28;20246;-65
2022/06/19 11:09:17;;;;;;;8.17;5.07;;;;;;;31.55;52.54;96456.63;5042684;28;20203;-60
2022/06/19 11:11:46;;;;;;;6.63;5.83;;;;;;;31.77;54.05;96452.69;5005053;28;20278;-65
2022/06/19 11:14:29;;;;;;;7.10;5.10;;;;;;;31.77;55.55;96436.28;5040320;28;20219;-64
2022/06/19 11:16:59;;;;;;;8.77;5.73;;;;;;;31.80;50.32;96435.59;5041436;28;20683;-64
2022/06/19 11:19:38;;;;;;;7.97;5.63;;;;;;;31.70;51.79;96428.63;5040047;28;20235;-64
2022/06/19 11:22:36;;;;;;;6.33;5.27;;;;;;;31.96;50.73;96413.78;5045597;28;20210;-64
2022/06/19 11:25:33;;;;;;;10.23;5.30;;;;;;;32.22;52.29;96415.38;5001385;28;20219;-65
2022/06/19 11:28:08;;;;;;;7.77;4.87;;;;;;;32.04;48.10;96412.09;4996328;28;20351;-59
2022/06/19 11:30:40;;;;;;;10.23;9.30;;;;;;;32.07;49.09;96414.13;5024794;28;20260;-67
2022/06/19 11:33:11;;;;;;;9.50;6.63;;;;;;;31.97;52.11;96403.66;5039069;28;20514;-64
2022/06/19 11:35:44;;;;;;;11.77;10.27;;;;;;;31.85;47.18;96408.00;5030169;28;20285;-65
2022/06/19 11:38:14;;;;;;;30.03;27.23;;;;;;;31.98;47.45;96397.81;5042517;28;20207;-64
2022/06/19 11:40:49;;;;;;;35.73;32.03;;;;;;;31.99;48.15;96402.16;5042019;28;20250;-64
2022/06/19 11:43:28;;;;;;;13.53;10.90;;;;;;;32.16;47.79;96411.28;5040626;28;20691;-65
2022/06/19 11:46:05;;;;;;;11.67;7.10;;;;;;;32.15;46.75;96398.72;5002718;28;20447;-60
2022/06/19 11:48:34;;;;;;;13.13;7.23;;;;;;;32.52;48.46;96395.13;5043120;28;20203;-62
2022/06/19 11:51:04;;;;;;;16.67;15.20;;;;;;;32.74;44.96;96396.53;5025309;28;20734;-60
2022/06/19 11:53:39;;;;;;;20.40;18.30;;;;;;;33.09;46.25;96384.19;5039907;28;20391;-57
2022/06/19 11:56:19;;;;;;;26.87;24.20;;;;;;;33.22;43.44;96382.94;5041476;28;20823;-60